Kugluktuk Airport

CYCO | YCO

Kugluktuk , Nunavut , Canada

Wednesday, October 23rd, 2019 | 22:56

Weather

CYCO 240400Z 20005KT 15SM SKC M10/M12 A2981 RMK FROIN SLP098

Charts

No Charts Available

Gates

No Gates Available

Runways

1 Available

Events

No events for this airport


New event